Pine, Idaho
Current Conditions -  °F | °C
As of 12:58 PM on Saturday 20 Dec 2014 (Local Time) from KMUO Reporting Station
Overcast Overcast  
Wind Chill: 34°   Ceiling: 8500
Heat Index: 42°   Visibility: 10mi
Dew Point: 39°   Wind: 16mph
Humidity: 88%   Direction: 100°E
Pressure: 29.98"   Gusts: NA
Location:  43.2609°N, 115.781°W
Report Text: KMUO 201958Z AUTO 10014KT 10SM OVC085 06/04 A2998 RMK AO2 SLP164 T00560037
Loading
Personal Weather Stations






























Interactive Weather Map New forecast layout! Learn more

10-Day Weather Forecast

Advertisements
Track Severe Weather on mobile